Graeme Rowley Aerodrome


Codes: YCHK/CKW
Name: Graeme Rowley Aerodrome
City: Christmas Creek Mine
Country: Australia
Elevation: 1462 ft.

Photos at Graeme Rowley Aerodrome


   Photos courtesy of SpottingLog. You can add your own sightings and photos by signing up for a free trial today.



No photos found.

Weather at Graeme Rowley Aerodrome


Time (UTC)DescriptionTempratureWindCloud coverageVisibilityPressureHumidity
19-Apr-2024 03:00Few Clouds28°C20 mph, E18%10000m1018hPa19%
19-Apr-2024 06:00Scattered Clouds28°C18 mph, E27%10000m1017hPa17%
19-Apr-2024 09:00Broken Clouds29°C18 mph, E73%10000m1016hPa16%
19-Apr-2024 12:00Overcast Clouds25°C13 mph, SE100%10000m1018hPa20%
19-Apr-2024 15:00Overcast Clouds23°C13 mph, SE98%10000m1018hPa21%
19-Apr-2024 18:00Overcast Clouds21°C16 mph, SE97%10000m1018hPa23%
19-Apr-2024 21:00Broken Clouds20°C16 mph, SE75%10000m1019hPa23%
20-Apr-2024 00:00Broken Clouds21°C20 mph, E74%10000m1021hPa19%
20-Apr-2024 03:00Scattered Clouds27°C22 mph, E33%10000m1019hPa14%
20-Apr-2024 06:00Scattered Clouds30°C18 mph, E29%10000m1016hPa11%
20-Apr-2024 09:00Few Clouds29°C16 mph, E16%10000m1016hPa11%
20-Apr-2024 12:00Few Clouds24°C11 mph, E23%10000m1019hPa15%
20-Apr-2024 15:00Broken Clouds22°C9 mph, SE81%10000m1019hPa18%
20-Apr-2024 18:00Broken Clouds20°C9 mph, SE58%10000m1019hPa25%
20-Apr-2024 21:00Clear Sky19°C9 mph, SE1%10000m1019hPa33%
21-Apr-2024 00:00Clear Sky22°C16 mph, E0%10000m1019hPa29%
21-Apr-2024 03:00Clear Sky28°C18 mph, E0%10000m1018hPa18%
21-Apr-2024 06:00Clear Sky30°C16 mph, E0%10000m1015hPa16%
21-Apr-2024 09:00Clear Sky29°C13 mph, E0%10000m1015hPa16%
21-Apr-2024 12:00Clear Sky24°C11 mph, E0%10000m1017hPa20%
21-Apr-2024 15:00Clear Sky22°C11 mph, E0%10000m1017hPa22%
21-Apr-2024 18:00Clear Sky19°C9 mph, SE0%10000m1017hPa24%
21-Apr-2024 21:00Clear Sky18°C9 mph, SE0%10000m1017hPa25%
22-Apr-2024 00:00Clear Sky21°C11 mph, E0%10000m1018hPa20%
22-Apr-2024 03:00Clear Sky27°C13 mph, E0%10000m1016hPa13%
22-Apr-2024 06:00Clear Sky30°C11 mph, E0%10000m1013hPa10%
22-Apr-2024 09:00Clear Sky29°C11 mph, SE2%10000m1013hPa11%
22-Apr-2024 12:00Clear Sky24°C11 mph, SE2%10000m1015hPa16%
22-Apr-2024 15:00Clear Sky22°C9 mph, E2%10000m1015hPa20%
22-Apr-2024 18:00Clear Sky20°C9 mph, SE2%10000m1015hPa24%
22-Apr-2024 21:00Clear Sky18°C11 mph, SE0%10000m1016hPa29%
23-Apr-2024 00:00Clear Sky22°C16 mph, E2%10000m1017hPa26%
23-Apr-2024 03:00Few Clouds29°C20 mph, E11%10000m1015hPa17%
23-Apr-2024 06:00Scattered Clouds30°C20 mph, E35%10000m1012hPa14%
23-Apr-2024 09:00Overcast Clouds29°C18 mph, SE86%10000m1013hPa17%
23-Apr-2024 12:00Broken Clouds25°C11 mph, SE81%10000m1015hPa24%
23-Apr-2024 15:00Broken Clouds23°C18 mph, SE82%10000m1016hPa25%
23-Apr-2024 18:00Overcast Clouds21°C22 mph, SE90%10000m1016hPa34%
23-Apr-2024 21:00Overcast Clouds20°C22 mph, SE100%10000m1017hPa40%
24-Apr-2024 00:00Overcast Clouds21°C25 mph, SE94%10000m1018hPa38%